Time;durP1;ratioP1;P1;durP2;ratioP2;P2;SDS_P1;SDS_P2;PMS_P1;PMS_P2;Temp;Humidity;BMP_temperature;BMP_pressure;BME280_temperature;BME280_humidity;BME280_pressure;Samples;Min_cycle;Max_cycle;Signal;HPM_P1;HPM_P2
2021/03/23 00:00:54;;;;;;;6.28;5.68;;;28.70;74.20;;;;;;5052694;28;20237;-49
2021/03/23 00:03:36;;;;;;;7.60;6.03;;;28.70;74.40;;;;;;5058999;28;20185;-51
2021/03/23 00:06:08;;;;;;;5.35;4.85;;;28.70;74.40;;;;;;5067173;28;20190;-52
2021/03/23 00:08:40;;;;;;;6.68;6.07;;;28.70;74.50;;;;;;5053871;28;20222;-49
2021/03/23 00:11:12;;;;;;;7.13;6.43;;;28.70;75.00;;;;;;5052406;28;20209;-50
2021/03/23 00:13:42;;;;;;;8.60;6.85;;;28.80;75.10;;;;;;5056556;28;20198;-49
2021/03/23 00:16:13;;;;;;;8.75;6.78;;;28.80;75.50;;;;;;5059842;28;20210;-54
2021/03/23 00:18:45;;;;;;;7.65;6.07;;;28.80;75.40;;;;;;5062265;28;20904;-51
2021/03/23 00:21:17;;;;;;;7.00;6.30;;;28.80;75.50;;;;;;5064968;28;20197;-50
2021/03/23 00:23:48;;;;;;;7.50;5.63;;;28.90;75.70;;;;;;5055432;28;20200;-49
2021/03/23 00:26:18;;;;;;;7.97;6.03;;;28.90;76.00;;;;;;5053365;28;20256;-53
2021/03/23 00:28:50;;;;;;;7.97;6.30;;;28.90;76.20;;;;;;5051984;28;20543;-48
2021/03/23 00:31:21;;;;;;;6.68;5.97;;;29.00;75.60;;;;;;5051683;28;20942;-50
2021/03/23 00:33:58;;;;;;;8.43;5.60;;;29.00;75.40;;;;;;5051486;28;20664;-51
2021/03/23 00:36:34;;;;;;;11.20;6.20;;;29.00;75.40;;;;;;5051788;28;20199;-54
2021/03/23 00:39:06;;;;;;;7.07;6.38;;;29.10;74.70;;;;;;5057466;28;20296;-53
2021/03/23 00:41:38;;;;;;;6.88;6.25;;;29.10;74.80;;;;;;5023680;28;20653;-54
2021/03/23 00:44:09;;;;;;;7.18;6.13;;;29.20;74.70;;;;;;5022776;28;20768;-50
2021/03/23 00:46:40;;;;;;;6.85;5.43;;;29.20;74.10;;;;;;5023610;28;20317;-49
2021/03/23 00:49:11;;;;;;;7.13;6.03;;;29.20;74.00;;;;;;5013943;28;20237;-48
2021/03/23 00:51:43;;;;;;;10.80;6.82;;;29.30;73.70;;;;;;5023817;28;20313;-51
2021/03/23 00:54:14;;;;;;;7.78;6.57;;;29.30;73.40;;;;;;5010416;28;20219;-52
2021/03/23 00:56:45;;;;;;;8.15;6.78;;;29.40;73.70;;;;;;5011693;28;20210;-51
2021/03/23 00:59:15;;;;;;;9.40;6.82;;;29.40;72.30;;;;;;5008503;28;20214;-51
2021/03/23 01:01:45;;;;;;;7.85;6.95;;;29.40;72.30;;;;;;5015907;28;20200;-52
2021/03/23 01:04:24;;;;;;;10.10;7.22;;;29.50;71.60;;;;;;5021458;28;20215;-52
2021/03/23 01:06:58;;;;;;;12.10;7.80;;;29.50;71.10;;;;;;5019402;28;20231;-52
2021/03/23 01:09:29;;;;;;;10.90;8.68;;;29.50;71.00;;;;;;5008681;28;20213;-50
2021/03/23 01:11:59;;;;;;;10.85;7.93;;;29.60;70.90;;;;;;5018101;28;21032;-52
2021/03/23 01:14:30;;;;;;;11.05;8.38;;;29.60;72.00;;;;;;5022406;28;20741;-51
2021/03/23 01:17:00;;;;;;;9.20;7.35;;;29.60;70.70;;;;;;5021983;28;20663;-50
2021/03/23 01:19:31;;;;;;;8.27;7.22;;;29.60;70.90;;;;;;5050690;28;20209;-51
2021/03/23 01:22:04;;;;;;;9.07;7.18;;;29.70;70.80;;;;;;5059253;28;20204;-50
2021/03/23 01:24:36;;;;;;;7.90;6.63;;;29.80;70.70;;;;;;5058142;28;20259;-50
2021/03/23 01:27:08;;;;;;;8.57;6.95;;;29.80;70.60;;;;;;5050893;28;20231;-50
2021/03/23 01:29:38;;;;;;;7.90;6.90;;;29.80;70.10;;;;;;5050431;28;20210;-49
2021/03/23 01:32:10;;;;;;;8.18;6.35;;;29.90;69.90;;;;;;5066156;28;20214;-49
2021/03/23 01:34:48;;;;;;;6.60;5.90;;;29.90;69.90;;;;;;5066045;28;20204;-52
2021/03/23 01:37:20;;;;;;;11.13;7.15;;;30.00;70.00;;;;;;5065206;28;20197;-52
2021/03/23 01:39:50;;;;;;;8.50;6.95;;;30.10;69.50;;;;;;5060765;28;20213;-50
2021/03/23 01:42:21;;;;;;;10.65;7.20;;;30.10;68.80;;;;;;5050860;28;20216;-52
2021/03/23 01:45:13;;;;;;;7.05;6.00;;;30.10;68.60;;;;;;5061333;28;20199;-49
2021/03/23 01:47:43;;;;;;;7.22;5.60;;;30.20;68.10;;;;;;5053872;28;20224;-51
2021/03/23 01:50:14;;;;;;;6.75;6.03;;;30.30;68.70;;;;;;5062819;28;20232;-50
2021/03/23 01:52:47;;;;;;;8.30;6.68;;;30.40;68.30;;;;;;5051778;28;20209;-49
2021/03/23 01:55:18;;;;;;;8.38;7.55;;;30.40;67.50;;;;;;5060151;28;20205;-49
2021/03/23 01:57:48;;;;;;;7.18;6.10;;;30.50;66.90;;;;;;5050678;28;20222;-51
2021/03/23 02:00:20;;;;;;;8.05;6.10;;;30.50;67.10;;;;;;5057610;28;20617;-51
2021/03/23 02:02:51;;;;;;;8.60;6.68;;;30.60;67.50;;;;;;5064816;28;20194;-51
2021/03/23 02:05:30;;;;;;;8.85;6.07;;;30.60;67.10;;;;;;5055427;28;20611;-48
2021/03/23 02:08:02;;;;;;;8.52;7.13;;;30.60;66.90;;;;;;5055490;28;20225;-50
2021/03/23 02:10:32;;;;;;;9.45;7.55;;;30.70;66.70;;;;;;5053677;28;20882;-49
2021/03/23 02:13:04;;;;;;;10.93;7.18;;;30.80;67.10;;;;;;5058459;28;20220;-50
2021/03/23 02:15:34;;;;;;;7.40;6.47;;;30.90;66.90;;;;;;5060397;28;20256;-50
2021/03/23 02:18:15;;;;;;;8.43;7.55;;;31.00;67.10;;;;;;5057740;28;20213;-49
2021/03/23 02:21:05;;;;;;;8.10;7.10;;;31.00;65.90;;;;;;5058206;28;20226;-50
2021/03/23 02:23:38;;;;;;;8.52;7.68;;;31.10;64.90;;;;;;5060327;28;20236;-52
2021/03/23 02:26:09;;;;;;;9.68;6.85;;;31.20;65.70;;;;;;5060943;28;20200;-52
2021/03/23 02:28:51;;;;;;;12.20;8.10;;;31.20;65.80;;;;;;5051695;28;20252;-53
2021/03/23 02:31:27;;;;;;;10.93;8.07;;;31.30;65.40;;;;;;5060002;28;20220;-49
2021/03/23 02:33:58;;;;;;;12.70;8.75;;;31.30;65.10;;;;;;5058996;28;20233;-50
2021/03/23 02:36:30;;;;;;;14.13;8.02;;;31.40;64.30;;;;;;5061702;28;20801;-52
2021/03/23 02:39:01;;;;;;;9.70;8.48;;;31.40;65.00;;;;;;5061120;28;20198;-54
2021/03/23 02:41:34;;;;;;;9.02;8.13;;;31.50;65.10;;;;;;5062444;28;20300;-48
2021/03/23 02:44:04;;;;;;;11.95;7.85;;;31.50;64.90;;;;;;5061009;28;20202;-50
2021/03/23 02:46:35;;;;;;;8.55;7.65;;;31.60;64.60;;;;;;5051616;28;20205;-48
2021/03/23 02:49:06;;;;;;;8.77;7.97;;;31.70;64.60;;;;;;5053189;28;20754;-51
2021/03/23 02:51:38;;;;;;;8.25;7.47;;;31.80;64.60;;;;;;5055995;28;20311;-48
2021/03/23 02:54:11;;;;;;;10.52;8.23;;;31.90;64.10;;;;;;5055045;28;20205;-51
2021/03/23 02:56:42;;;;;;;8.27;7.50;;;31.90;63.70;;;;;;5062735;28;20579;-48
2021/03/23 02:59:12;;;;;;;10.60;8.90;;;31.90;64.30;;;;;;5051735;28;20194;-53
2021/03/23 03:01:42;;;;;;;10.73;9.73;;;32.00;63.40;;;;;;5049497;28;20583;-50
2021/03/23 03:04:13;;;;;;;10.15;9.07;;;32.10;62.60;;;;;;5057391;28;20205;-50
2021/03/23 03:06:45;;;;;;;10.00;9.02;;;32.10;62.70;;;;;;5065547;28;20293;-51
2021/03/23 03:09:15;;;;;;;12.32;8.27;;;32.20;62.50;;;;;;5050292;28;20195;-48
2021/03/23 03:11:46;;;;;;;12.27;9.75;;;32.20;64.20;;;;;;5052462;28;20217;-50
2021/03/23 03:14:17;;;;;;;10.45;9.35;;;32.30;63.40;;;;;;5055964;28;20201;-49
2021/03/23 03:16:47;;;;;;;9.88;8.98;;;32.30;63.30;;;;;;5050588;28;20807;-52
2021/03/23 03:19:18;;;;;;;9.93;8.98;;;32.40;62.90;;;;;;5049794;28;20225;-50
2021/03/23 03:21:50;;;;;;;9.68;8.52;;;32.50;63.00;;;;;;5062342;28;20205;-49
2021/03/23 03:24:21;;;;;;;8.55;7.75;;;32.50;63.20;;;;;;5063376;28;20248;-49
2021/03/23 03:26:52;;;;;;;10.23;7.85;;;32.60;63.70;;;;;;5058609;28;20229;-49
2021/03/23 03:29:22;;;;;;;8.85;7.93;;;32.70;63.50;;;;;;5057540;28;20213;-49
2021/03/23 03:31:53;;;;;;;9.20;7.88;;;32.80;63.30;;;;;;5053535;28;20322;-49
2021/03/23 03:34:23;;;;;;;11.23;9.30;;;32.80;63.50;;;;;;5060762;28;20198;-49
2021/03/23 03:37:01;;;;;;;10.07;9.13;;;32.90;62.50;;;;;;5061675;28;20300;-49
2021/03/23 03:39:31;;;;;;;10.30;9.30;;;33.00;62.50;;;;;;5067420;28;20224;-51
2021/03/23 03:42:02;;;;;;;10.75;9.80;;;33.10;62.20;;;;;;5057417;28;20204;-48
2021/03/23 03:44:33;;;;;;;10.70;9.60;;;33.20;61.50;;;;;;5055541;28;20210;-49
2021/03/23 03:47:03;;;;;;;10.57;9.48;;;33.30;61.40;;;;;;5066179;28;20301;-49
2021/03/23 03:49:34;;;;;;;13.00;11.15;;;33.40;61.50;;;;;;5067291;28;20198;-51
2021/03/23 03:52:06;;;;;;;11.85;9.95;;;33.40;60.70;;;;;;5067698;28;20772;-49
2021/03/23 03:54:36;;;;;;;11.35;10.27;;;33.50;59.90;;;;;;5065800;28;20197;-49
2021/03/23 03:57:08;;;;;;;11.93;10.60;;;33.60;60.30;;;;;;5066190;28;20650;-48
2021/03/23 03:59:38;;;;;;;11.23;10.05;;;33.60;59.90;;;;;;5064500;28;20245;-51
2021/03/23 04:02:09;;;;;;;12.57;10.52;;;33.60;60.10;;;;;;5052501;28;20901;-49
2021/03/23 04:04:43;;;;;;;11.00;9.55;;;33.70;59.90;;;;;;5052048;28;20202;-51
2021/03/23 04:07:14;;;;;;;11.40;10.38;;;33.80;60.40;;;;;;5064978;28;20209;-49
2021/03/23 04:09:45;;;;;;;12.55;10.40;;;33.90;60.30;;;;;;5053401;28;20205;-50
2021/03/23 04:12:16;;;;;;;12.07;10.85;;;33.90;60.00;;;;;;5064332;28;20282;-51
2021/03/23 04:14:46;;;;;;;11.30;10.23;;;34.00;59.50;;;;;;5064940;28;20201;-50
2021/03/23 04:17:16;;;;;;;13.25;11.95;;;34.10;59.70;;;;;;5067016;28;20247;-52
2021/03/23 04:19:47;;;;;;;13.13;11.82;;;34.20;59.00;;;;;;5053997;28;20194;-49
2021/03/23 04:22:18;;;;;;;12.70;11.50;;;34.30;59.10;;;;;;5066163;28;20779;-52
2021/03/23 04:24:49;;;;;;;13.73;12.32;;;34.30;58.70;;;;;;5066698;28;20283;-49
2021/03/23 04:27:20;;;;;;;12.68;11.48;;;34.40;57.90;;;;;;5053461;28;20218;-49
2021/03/23 04:29:51;;;;;;;12.75;11.57;;;34.50;58.60;;;;;;5061622;28;20205;-53
2021/03/23 04:32:22;;;;;;;12.25;11.15;;;34.50;58.90;;;;;;5060519;28;20202;-53
2021/03/23 04:34:53;;;;;;;13.20;11.88;;;34.60;58.70;;;;;;5066441;28;20584;-51
2021/03/23 04:37:24;;;;;;;12.35;11.07;;;34.60;58.20;;;;;;5066766;28;20249;-55
2021/03/23 04:39:55;;;;;;;11.98;10.77;;;34.70;58.30;;;;;;5063946;28;20594;-51
2021/03/23 04:42:25;;;;;;;11.65;10.50;;;34.80;58.30;;;;;;5064384;28;20766;-51
2021/03/23 04:44:56;;;;;;;11.93;10.82;;;34.90;58.40;;;;;;5066590;28;20210;-49
2021/03/23 04:47:26;;;;;;;12.18;11.15;;;35.00;58.30;;;;;;5058362;28;20226;-49
2021/03/23 04:49:57;;;;;;;15.20;11.52;;;35.00;58.10;;;;;;5055991;28;20194;-50
2021/03/23 04:52:28;;;;;;;12.52;11.48;;;35.10;57.80;;;;;;5051022;28;20576;-50
2021/03/23 04:54:59;;;;;;;12.27;11.18;;;35.20;57.40;;;;;;5056465;28;20219;-50
2021/03/23 04:57:29;;;;;;;13.52;12.32;;;35.30;57.50;;;;;;5057226;28;20197;-50
2021/03/23 04:59:59;;;;;;;12.40;11.43;;;35.30;56.90;;;;;;5065187;28;20237;-53
2021/03/23 05:02:30;;;;;;;11.85;10.95;;;35.40;56.70;;;;;;5066854;28;20201;-51
2021/03/23 05:05:01;;;;;;;12.30;11.20;;;35.50;57.20;;;;;;5053232;28;20210;-51
2021/03/23 05:07:32;;;;;;;12.02;10.77;;;35.60;57.40;;;;;;5055233;28;20312;-51
2021/03/23 05:10:03;;;;;;;12.38;11.18;;;35.60;57.80;;;;;;5065367;28;20255;-49
2021/03/23 05:12:33;;;;;;;12.02;11.02;;;35.70;57.00;;;;;;5065734;28;20243;-52
2021/03/23 05:15:05;;;;;;;11.30;10.10;;;35.80;56.80;;;;;;5052041;28;20661;-50
2021/03/23 05:17:35;;;;;;;12.50;11.40;;;35.80;56.90;;;;;;5051525;28;20206;-52
2021/03/23 05:20:07;;;;;;;11.60;10.60;;;36.00;56.90;;;;;;5059292;28;20229;-51
2021/03/23 05:22:39;;;;;;;11.88;10.88;;;36.00;56.40;;;;;;5056699;28;20207;-50
2021/03/23 05:25:11;;;;;;;12.90;11.80;;;36.10;56.20;;;;;;5062826;28;20194;-51
2021/03/23 05:27:42;;;;;;;13.88;12.68;;;36.10;55.80;;;;;;5062106;28;20626;-52
2021/03/23 05:30:13;;;;;;;12.68;11.38;;;36.20;56.20;;;;;;5065227;28;20259;-52
2021/03/23 05:32:44;;;;;;;12.55;11.45;;;36.30;55.30;;;;;;5059111;28;20201;-52
2021/03/23 05:35:16;;;;;;;12.70;11.70;;;36.30;55.30;;;;;;5062182;28;20202;-52
2021/03/23 05:37:52;;;;;;;12.55;11.27;;;36.40;55.10;;;;;;5051419;28;20284;-47
2021/03/23 05:40:23;;;;;;;13.20;12.10;;;36.40;55.20;;;;;;5064257;28;20296;-51
2021/03/23 05:43:04;;;;;;;14.90;12.13;;;36.40;55.20;;;;;;5053682;28;20646;-51
2021/03/23 05:45:36;;;;;;;12.98;11.98;;;36.50;55.00;;;;;;5062426;28;20237;-53
2021/03/23 05:48:20;;;;;;;13.40;12.20;;;36.60;55.00;;;;;;5051992;28;20272;-55
2021/03/23 05:50:55;;;;;;;13.00;11.90;;;36.60;54.50;;;;;;5054145;28;20240;-52
2021/03/23 05:53:49;;;;;;;14.18;12.93;;;36.70;54.50;;;;;;5011746;28;20290;-50
2021/03/23 05:56:23;;;;;;;12.93;11.82;;;36.80;54.00;;;;;;5019696;28;20329;-52
2021/03/23 05:58:54;;;;;;;12.10;11.02;;;36.90;54.10;;;;;;5020829;28;20251;-50
2021/03/23 06:01:26;;;;;;;12.73;11.63;;;36.90;54.10;;;;;;5021293;28;20237;-49
2021/03/23 06:03:58;;;;;;;12.63;11.43;;;37.00;54.10;;;;;;5020403;28;20299;-50
2021/03/23 06:06:36;;;;;;;11.88;10.77;;;37.00;53.70;;;;;;5021758;28;20290;-50
2021/03/23 06:09:09;;;;;;;13.02;11.73;;;37.10;53.30;;;;;;5022301;28;20288;-52
2021/03/23 06:11:50;;;;;;;12.52;11.45;;;37.10;53.50;;;;;;4980747;28;20196;-52
2021/03/23 06:14:38;;;;;;;13.25;12.10;;;37.30;53.20;;;;;;4889374;29;20212;-49
2021/03/23 06:17:28;;;;;;;13.10;12.10;;;37.30;52.70;;;;;;4888964;29;21114;-49
2021/03/23 06:20:06;;;;;;;13.07;11.80;;;37.30;52.30;;;;;;4889247;29;20243;-49
2021/03/23 06:22:52;;;;;;;11.80;10.80;;;37.40;52.20;;;;;;4875394;29;20775;-48
2021/03/23 06:25:27;;;;;;;12.25;11.15;;;37.40;52.20;;;;;;4828019;29;20205;-54
2021/03/23 06:28:19;;;;;;;12.55;11.52;;;37.50;52.80;;;;;;4832315;29;20367;-50
2021/03/23 06:30:52;;;;;;;12.32;11.23;;;37.50;52.10;;;;;;4833326;29;20217;-50
2021/03/23 06:33:25;;;;;;;12.68;11.48;;;37.60;52.60;;;;;;4832726;29;20213;-52
2021/03/23 06:35:57;;;;;;;13.40;12.25;;;37.70;52.70;;;;;;4844992;29;20216;-52
2021/03/23 06:38:38;;;;;;;13.43;12.23;;;37.70;52.20;;;;;;4894072;29;20212;-48
2021/03/23 06:41:21;;;;;;;13.90;12.20;;;37.80;51.60;;;;;;4926806;29;20309;-52
2021/03/23 06:43:53;;;;;;;12.15;11.05;;;37.90;51.30;;;;;;4926625;29;20867;-50
2021/03/23 06:46:29;;;;;;;12.52;11.43;;;37.90;51.30;;;;;;4927019;29;20208;-49
2021/03/23 06:49:06;;;;;;;12.65;11.65;;;37.90;51.00;;;;;;4927064;29;20714;-50
2021/03/23 06:51:37;;;;;;;11.70;10.60;;;38.00;50.50;;;;;;4926605;29;20234;-51
2021/03/23 06:54:20;;;;;;;12.23;11.23;;;38.00;51.20;;;;;;4966474;28;20208;-50
2021/03/23 06:57:21;;;;;;;12.27;11.25;;;38.00;50.30;;;;;;5050993;28;20296;-50
2021/03/23 06:59:58;;;;;;;11.35;10.35;;;38.00;50.60;;;;;;5062711;28;20237;-50
2021/03/23 07:02:31;;;;;;;11.88;10.88;;;37.90;50.90;;;;;;5019354;28;20242;-50
2021/03/23 07:05:33;;;;;;;13.15;11.93;;;38.00;50.60;;;;;;5022871;28;20193;-50
2021/03/23 07:08:05;;;;;;;12.68;11.68;;;37.90;50.20;;;;;;5026159;28;20249;-50
2021/03/23 07:10:36;;;;;;;11.20;10.30;;;38.00;49.90;;;;;;5023179;28;20211;-52
2021/03/23 07:13:09;;;;;;;11.57;10.57;;;38.00;50.20;;;;;;5024796;28;20561;-52
2021/03/23 07:15:40;;;;;;;12.50;11.40;;;37.90;49.70;;;;;;4985494;28;20224;-52
2021/03/23 07:18:13;;;;;;;11.70;10.60;;;37.90;49.50;;;;;;4984992;28;20206;-50
2021/03/23 07:20:45;;;;;;;11.43;10.32;;;37.90;50.70;;;;;;4984342;28;20377;-49
2021/03/23 07:23:37;;;;;;;11.32;10.18;;;37.90;51.70;;;;;;4985176;28;20200;-50
2021/03/23 07:26:19;;;;;;;12.93;11.68;;;37.80;52.60;;;;;;4980142;28;20204;-48
2021/03/23 07:28:51;;;;;;;11.70;10.70;;;37.70;52.60;;;;;;4984479;28;20213;-51
2021/03/23 07:31:24;;;;;;;11.00;9.85;;;37.50;52.50;;;;;;4984658;28;20238;-51
2021/03/23 07:34:14;;;;;;;10.07;9.25;;;37.40;53.30;;;;;;5039897;28;20193;-50
2021/03/23 07:36:46;;;;;;;10.52;9.50;;;37.30;53.70;;;;;;5066835;28;20190;-50
2021/03/23 07:39:23;;;;;;;11.13;10.13;;;37.30;53.70;;;;;;5066698;28;20185;-51
2021/03/23 07:41:55;;;;;;;9.77;8.98;;;37.30;53.50;;;;;;5067346;28;20205;-50
2021/03/23 07:44:34;;;;;;;10.10;9.20;;;37.20;53.20;;;;;;5065413;28;20212;-53
2021/03/23 07:47:10;;;;;;;10.20;9.20;;;37.20;53.80;;;;;;5022526;28;20310;-54
2021/03/23 07:49:43;;;;;;;10.85;9.77;;;37.20;54.10;;;;;;5020012;28;20234;-54
2021/03/23 07:52:25;;;;;;;10.77;9.75;;;37.20;54.50;;;;;;4984616;28;20209;-51
2021/03/23 07:54:58;;;;;;;13.35;12.05;;;37.30;54.50;;;;;;4939944;29;20205;-49
2021/03/23 07:57:51;;;;;;;11.30;10.13;;;37.30;54.10;;;;;;4922235;29;20214;-48
2021/03/23 08:00:42;;;;;;;10.93;9.82;;;37.30;54.20;;;;;;4918916;29;20818;-52
2021/03/23 08:03:47;;;;;;;11.13;10.02;;;37.30;53.60;;;;;;4863523;29;20215;-51
2021/03/23 08:06:23;;;;;;;11.02;10.02;;;37.30;53.70;;;;;;4893956;29;20202;-49
2021/03/23 08:09:23;;;;;;;10.35;9.32;;;37.30;53.80;;;;;;4924008;29;20940;-48
2021/03/23 08:11:56;;;;;;;11.52;10.45;;;37.30;54.00;;;;;;4912267;29;20210;-50
2021/03/23 08:14:38;;;;;;;10.75;9.75;;;37.30;54.40;;;;;;4923460;29;20276;-49
2021/03/23 08:17:39;;;;;;;10.35;9.45;;;37.30;54.30;;;;;;4947639;28;20557;-49
2021/03/23 08:20:29;;;;;;;11.30;10.07;;;37.30;54.40;;;;;;4982424;28;20237;-50
2021/03/23 08:23:04;;;;;;;11.38;10.32;;;37.30;54.10;;;;;;4946587;29;20241;-49
2021/03/23 08:25:46;;;;;;;10.70;9.40;;;37.30;53.80;;;;;;4944032;29;20217;-50
2021/03/23 08:28:31;;;;;;;10.73;9.82;;;37.30;54.00;;;;;;4980684;28;20223;-51
2021/03/23 08:31:19;;;;;;;11.25;10.30;;;37.30;54.20;;;;;;5024942;28;20202;-50
2021/03/23 08:34:05;;;;;;;10.32;9.43;;;37.30;54.50;;;;;;5017448;28;20245;-55
2021/03/23 08:36:51;;;;;;;11.98;10.43;;;37.30;54.60;;;;;;5025146;28;20209;-49
2021/03/23 08:39:26;;;;;;;11.20;10.18;;;37.20;54.10;;;;;;5006770;28;20258;-50
2021/03/23 08:42:01;;;;;;;12.20;11.10;;;37.20;54.30;;;;;;5002871;28;20211;-48
2021/03/23 08:44:34;;;;;;;11.05;10.05;;;37.20;54.40;;;;;;5006407;28;20207;-49
2021/03/23 08:47:11;;;;;;;11.77;10.65;;;37.20;54.70;;;;;;5022876;28;20297;-51
2021/03/23 08:49:42;;;;;;;10.73;9.70;;;37.20;54.70;;;;;;4994896;28;20220;-50
2021/03/23 08:52:36;;;;;;;11.75;10.75;;;37.20;54.70;;;;;;5000510;28;20207;-50
2021/03/23 08:55:07;;;;;;;11.10;10.10;;;37.20;54.70;;;;;;5001549;28;20238;-49
2021/03/23 08:57:50;;;;;;;12.05;10.85;;;37.20;54.60;;;;;;4999119;28;20864;-50
2021/03/23 09:00:41;;;;;;;12.60;11.32;;;37.20;54.80;;;;;;4991796;28;20242;-50
2021/03/23 09:03:40;;;;;;;12.27;10.98;;;37.20;54.80;;;;;;5007884;28;20210;-52
2021/03/23 09:06:13;;;;;;;11.95;10.75;;;37.10;55.00;;;;;;5020177;28;20202;-48
2021/03/23 09:08:54;;;;;;;12.95;10.73;;;37.10;55.50;;;;;;5062092;28;20264;-51
2021/03/23 09:12:01;;;;;;;12.38;11.38;;;37.10;55.50;;;;;;5021023;28;20253;-51
2021/03/23 09:14:33;;;;;;;12.55;11.45;;;37.10;55.40;;;;;;5020617;28;20206;-49
2021/03/23 09:17:22;;;;;;;14.13;11.85;;;37.10;55.60;;;;;;5008472;28;20211;-49
2021/03/23 09:19:57;;;;;;;11.73;10.73;;;37.10;55.70;;;;;;5008730;28;20250;-51
2021/03/23 09:22:39;;;;;;;13.02;11.38;;;37.10;55.80;;;;;;5012747;28;20203;-52
2021/03/23 09:25:38;;;;;;;17.42;11.98;;;37.20;55.40;;;;;;5008103;28;20200;-52
2021/03/23 09:28:09;;;;;;;13.02;11.57;;;37.20;55.60;;;;;;5020806;28;20239;-54
2021/03/23 09:31:03;;;;;;;12.82;11.63;;;37.20;55.10;;;;;;5061840;28;20625;-50
2021/03/23 09:33:37;;;;;;;13.23;12.02;;;37.10;55.50;;;;;;5064373;28;20656;-53
2021/03/23 09:36:50;;;;;;;13.48;12.27;;;37.00;55.40;;;;;;5063614;28;20231;-54
2021/03/23 09:39:46;;;;;;;16.30;12.50;;;37.00;55.70;;;;;;5061487;28;20190;-52
2021/03/23 09:42:27;;;;;;;12.45;11.32;;;37.00;55.80;;;;;;5064894;28;20212;-48
2021/03/23 09:45:33;;;;;;;12.57;11.27;;;36.90;55.90;;;;;;5057472;28;20241;-52
2021/03/23 09:48:24;;;;;;;12.95;11.75;;;36.80;56.20;;;;;;5059136;28;20288;-53
2021/03/23 09:51:02;;;;;;;11.23;10.32;;;36.70;56.60;;;;;;5020401;28;20592;-50
2021/03/23 09:53:36;;;;;;;13.70;12.30;;;36.60;56.40;;;;;;5022471;28;20616;-50
2021/03/23 09:56:13;;;;;;;13.68;12.40;;;36.50;56.40;;;;;;5009188;28;20207;-51
2021/03/23 09:58:43;;;;;;;14.45;12.95;;;36.50;56.30;;;;;;5008134;28;20334;-52
2021/03/23 10:01:16;;;;;;;14.15;12.82;;;36.40;56.40;;;;;;5007732;28;20235;-51
2021/03/23 10:03:47;;;;;;;14.27;12.88;;;36.30;56.60;;;;;;5022653;28;20742;-52
2021/03/23 10:06:19;;;;;;;14.40;13.00;;;36.20;56.60;;;;;;5016942;28;20217;-48
2021/03/23 10:08:58;;;;;;;13.00;11.80;;;36.10;56.60;;;;;;5020588;28;20660;-52
2021/03/23 10:11:35;;;;;;;14.18;12.77;;;36.00;56.70;;;;;;5021145;28;20203;-50
2021/03/23 10:14:10;;;;;;;13.57;12.27;;;35.90;56.80;;;;;;5009159;28;20651;-52
2021/03/23 10:16:41;;;;;;;12.30;11.20;;;35.90;57.00;;;;;;5050481;28;20197;-49
2021/03/23 10:19:13;;;;;;;11.63;10.63;;;35.80;57.10;;;;;;5050237;28;20202;-50
2021/03/23 10:21:47;;;;;;;13.60;12.15;;;35.80;57.30;;;;;;5050618;28;20285;-48
2021/03/23 10:24:19;;;;;;;12.27;11.07;;;35.80;57.60;;;;;;5055338;28;20682;-53
2021/03/23 10:26:52;;;;;;;13.88;12.40;;;35.70;57.50;;;;;;5062891;28;20567;-50
2021/03/23 10:29:31;;;;;;;12.88;11.73;;;35.70;57.70;;;;;;5062967;28;20214;-50
2021/03/23 10:32:16;;;;;;;12.82;11.63;;;35.70;57.70;;;;;;5057055;28;20211;-50
2021/03/23 10:35:02;;;;;;;11.73;10.52;;;35.60;57.70;;;;;;5051966;28;20198;-49
2021/03/23 10:37:34;;;;;;;11.52;10.32;;;35.60;58.70;;;;;;5062875;28;20863;-50
2021/03/23 10:40:05;;;;;;;14.57;13.23;;;35.60;57.80;;;;;;5055039;28;20615;-50
2021/03/23 10:42:37;;;;;;;13.82;12.63;;;35.60;57.90;;;;;;5061414;28;20268;-50
2021/03/23 10:45:24;;;;;;;13.38;12.07;;;35.60;57.70;;;;;;5055009;28;20235;-49
2021/03/23 10:48:02;;;;;;;12.88;11.77;;;35.50;57.50;;;;;;5068023;28;20197;-49
2021/03/23 10:50:34;;;;;;;13.77;12.35;;;35.50;57.50;;;;;;5056063;28;20320;-49
2021/03/23 10:53:20;;;;;;;13.18;10.38;;;35.50;57.70;;;;;;5065013;28;20197;-49
2021/03/23 10:55:51;;;;;;;12.07;10.88;;;35.40;57.80;;;;;;5067656;28;20293;-50
2021/03/23 10:58:24;;;;;;;12.00;10.90;;;35.40;58.10;;;;;;5058063;28;20256;-49
2021/03/23 11:01:13;;;;;;;11.88;10.70;;;35.40;58.60;;;;;;5066408;28;20236;-48
2021/03/23 11:03:44;;;;;;;13.00;11.70;;;35.40;58.70;;;;;;5067276;28;20193;-50
2021/03/23 11:06:29;;;;;;;11.65;10.57;;;35.40;58.70;;;;;;5067993;28;20677;-49
2021/03/23 11:09:00;;;;;;;12.23;11.13;;;35.40;59.10;;;;;;5067661;28;20231;-51
2021/03/23 11:11:32;;;;;;;15.23;11.30;;;35.40;59.10;;;;;;5052622;28;20670;-48
2021/03/23 11:14:05;;;;;;;14.15;11.95;;;35.40;59.30;;;;;;5060567;28;20206;-53
2021/03/23 11:16:36;;;;;;;13.07;11.80;;;35.40;59.40;;;;;;5052667;28;20288;-50
2021/03/23 11:19:12;;;;;;;12.70;11.63;;;35.40;59.40;;;;;;5067046;28;20215;-52
2021/03/23 11:21:43;;;;;;;12.80;11.57;;;35.40;59.60;;;;;;4967612;28;20204;-51
2021/03/23 11:24:13;;;;;;;14.45;12.57;;;35.40;59.80;;;;;;4932806;29;20222;-48
2021/03/23 11:26:44;;;;;;;21.02;14.15;;;35.30;60.10;;;;;;4940979;29;20287;-49
2021/03/23 11:29:17;;;;;;;15.23;13.70;;;35.30;60.30;;;;;;4945436;29;20265;-49
2021/03/23 11:31:47;;;;;;;15.75;14.18;;;35.30;60.80;;;;;;4933340;29;20207;-49
2021/03/23 11:34:18;;;;;;;15.77;14.38;;;35.20;60.60;;;;;;4937273;29;20210;-47
2021/03/23 11:36:48;;;;;;;14.18;12.75;;;35.10;60.60;;;;;;4946468;29;20265;-52
2021/03/23 11:39:19;;;;;;;14.75;13.30;;;35.10;60.90;;;;;;4958103;28;20199;-49
2021/03/23 11:41:59;;;;;;;14.02;12.65;;;35.10;61.00;;;;;;4983249;28;20219;-48
2021/03/23 11:44:32;;;;;;;14.70;13.30;;;35.00;61.10;;;;;;4971877;28;20205;-48
2021/03/23 11:47:08;;;;;;;14.85;13.40;;;34.90;61.00;;;;;;5034434;28;20206;-48
2021/03/23 11:49:59;;;;;;;15.45;13.98;;;34.80;61.40;;;;;;5043954;28;20309;-48
2021/03/23 11:52:30;;;;;;;14.50;13.25;;;34.80;61.60;;;;;;5043116;28;20198;-49
2021/03/23 11:55:04;;;;;;;15.43;13.77;;;34.70;61.70;;;;;;5052340;28;20206;-49
2021/03/23 11:57:34;;;;;;;14.50;13.10;;;34.70;62.00;;;;;;5066198;28;20194;-48
2021/03/23 12:00:07;;;;;;;13.50;12.20;;;34.70;62.40;;;;;;5059118;28;20705;-50
2021/03/23 12:02:38;;;;;;;13.70;12.40;;;34.60;62.90;;;;;;5053877;28;20291;-52
2021/03/23 12:05:10;;;;;;;12.90;11.70;;;34.50;62.90;;;;;;5052223;28;20238;-53
2021/03/23 12:07:53;;;;;;;12.27;11.18;;;34.50;63.10;;;;;;5065533;28;20285;-52
2021/03/23 12:10:26;;;;;;;12.90;11.73;;;34.50;63.70;;;;;;5024086;28;20333;-51
2021/03/23 12:13:00;;;;;;;15.98;14.52;;;34.40;63.50;;;;;;5023287;28;20223;-53
2021/03/23 12:15:33;;;;;;;17.50;15.80;;;34.40;63.70;;;;;;5022526;28;20195;-50
2021/03/23 12:18:08;;;;;;;18.85;17.05;;;34.30;63.50;;;;;;5023681;28;20770;-52
2021/03/23 12:20:39;;;;;;;20.85;18.52;;;34.30;63.70;;;;;;5024024;28;20706;-54
2021/03/23 12:23:09;;;;;;;21.88;19.73;;;34.30;63.80;;;;;;5021599;28;20210;-50
2021/03/23 12:25:40;;;;;;;22.15;20.10;;;34.20;63.80;;;;;;5022929;28;20889;-48
2021/03/23 12:28:13;;;;;;;22.27;20.15;;;34.20;64.00;;;;;;5022229;28;20203;-51
2021/03/23 12:30:45;;;;;;;22.25;20.02;;;34.20;64.20;;;;;;5023815;28;20234;-48
2021/03/23 12:33:16;;;;;;;20.90;18.70;;;34.10;64.40;;;;;;5023650;28;20288;-50
2021/03/23 12:35:46;;;;;;;22.38;19.40;;;34.20;64.40;;;;;;5057306;28;20205;-51
2021/03/23 12:38:17;;;;;;;21.80;19.08;;;34.10;64.50;;;;;;5066103;28;20201;-49
2021/03/23 12:40:48;;;;;;;21.17;18.88;;;34.10;64.80;;;;;;5066822;28;20198;-51
2021/03/23 12:43:24;;;;;;;18.75;16.88;;;34.00;65.00;;;;;;5063992;28;20201;-50
2021/03/23 12:45:55;;;;;;;18.48;16.48;;;34.00;65.20;;;;;;5065279;28;20835;-48
2021/03/23 12:48:26;;;;;;;16.92;15.32;;;34.00;65.20;;;;;;5054491;28;20638;-51
2021/03/23 12:50:57;;;;;;;16.75;15.13;;;34.00;65.10;;;;;;5055109;28;20221;-48
2021/03/23 12:53:27;;;;;;;17.02;15.45;;;33.90;65.20;;;;;;5053771;28;20217;-48
2021/03/23 12:55:57;;;;;;;16.92;15.35;;;33.90;65.30;;;;;;5040540;28;20210;-48
2021/03/23 12:58:30;;;;;;;15.82;14.23;;;33.80;65.20;;;;;;5040820;28;20935;-49
2021/03/23 13:01:02;;;;;;;14.82;13.43;;;33.80;65.60;;;;;;5041713;28;20320;-51
2021/03/23 13:03:33;;;;;;;15.95;14.60;;;33.80;65.60;;;;;;5041863;28;20252;-50
2021/03/23 13:06:03;;;;;;;14.75;13.38;;;33.70;65.50;;;;;;5043049;28;20237;-52
2021/03/23 13:08:34;;;;;;;14.18;12.88;;;33.70;65.70;;;;;;5042012;28;20207;-50
2021/03/23 13:11:07;;;;;;;14.07;12.68;;;33.70;65.80;;;;;;5041947;28;20211;-51
2021/03/23 13:13:41;;;;;;;12.93;11.60;;;33.70;66.00;;;;;;5033807;28;20252;-50